Time;durP1;ratioP1;P1;durP2;ratioP2;P2;SDS_P1;SDS_P2;PMS_P1;PMS_P2;Temp;Humidity;BMP_temperature;BMP_pressure;BME280_temperature;BME280_humidity;BME280_pressure;Samples;Min_cycle;Max_cycle;Signal;HPM_P1;HPM_P2
2024/04/12 00:01:13;;;;;;;8.03;7.33;;;14.40;11.90;;;;;;5342164;26;20485;-77
2024/04/12 00:03:41;;;;;;;7.27;6.77;;;14.40;11.90;;;;;;5380000;26;20508;-78
2024/04/12 00:06:20;;;;;;;7.30;6.90;;;14.40;12.10;;;;;;5359934;26;20481;-77
2024/04/12 00:08:47;;;;;;;7.17;6.60;;;14.40;12.10;;;;;;5347782;26;20461;-77
2024/04/12 00:11:18;;;;;;;6.53;6.13;;;14.40;12.30;;;;;;5371154;26;20812;-76
2024/04/12 00:13:45;;;;;;;7.37;6.87;;;14.30;12.30;;;;;;5350176;26;20594;-77
2024/04/12 00:16:11;;;;;;;8.07;7.47;;;14.30;12.30;;;;;;5380918;26;20999;-78
2024/04/12 00:18:37;;;;;;;7.40;6.80;;;14.30;12.20;;;;;;5380844;26;20520;-76
2024/04/12 00:21:05;;;;;;;7.20;6.70;;;14.30;12.30;;;;;;5381581;26;20289;-78
2024/04/12 00:23:32;;;;;;;8.07;7.07;;;14.30;12.40;;;;;;5381428;26;21043;-80
2024/04/12 00:26:00;;;;;;;7.60;6.90;;;14.30;12.50;;;;;;5381403;26;20499;-79
2024/04/12 00:28:32;;;;;;;7.50;7.00;;;14.30;12.40;;;;;;5336880;26;20486;-76
2024/04/12 00:31:02;;;;;;;7.20;6.63;;;14.30;12.30;;;;;;5323538;26;20484;-77
2024/04/12 00:33:31;;;;;;;7.37;6.77;;;14.30;12.40;;;;;;5367924;26;20896;-77
2024/04/12 00:36:07;;;;;;;8.07;7.27;;;14.30;12.30;;;;;;5322375;26;20532;-77
2024/04/12 00:38:35;;;;;;;7.20;6.60;;;14.20;12.50;;;;;;5367098;26;21240;-76
2024/04/12 00:41:11;;;;;;;7.37;6.73;;;14.10;12.70;;;;;;5324623;26;20531;-77
2024/04/12 00:43:50;;;;;;;7.70;7.00;;;14.10;12.80;;;;;;5364984;26;20460;-77
2024/04/12 00:46:24;;;;;;;7.47;6.87;;;14.10;12.90;;;;;;5341006;26;20549;-77
2024/04/12 00:48:57;;;;;;;7.30;6.80;;;14.00;13.10;;;;;;5369901;26;20521;-78
2024/04/12 00:51:26;;;;;;;6.90;6.40;;;14.00;13.10;;;;;;5355762;26;20473;-78
2024/04/12 00:53:57;;;;;;;7.93;7.13;;;14.00;13.10;;;;;;5330571;26;20461;-78
2024/04/12 00:56:30;;;;;;;9.07;8.27;;;14.00;13.30;;;;;;5361581;26;20461;-78
2024/04/12 00:58:56;;;;;;;8.20;7.50;;;14.00;13.30;;;;;;5375747;26;20566;-78
2024/04/12 01:01:24;;;;;;;8.13;7.43;;;13.90;13.30;;;;;;5361964;26;20820;-78
2024/04/12 01:03:53;;;;;;;7.37;6.87;;;13.90;13.40;;;;;;5361905;26;20862;-79
2024/04/12 01:06:24;;;;;;;7.23;6.70;;;14.00;13.60;;;;;;5331400;26;20485;-77
2024/04/12 01:08:54;;;;;;;7.47;6.97;;;13.90;13.50;;;;;;5361509;26;20844;-79
2024/04/12 01:11:21;;;;;;;7.13;6.60;;;13.90;13.50;;;;;;5350353;26;20469;-77
2024/04/12 01:13:50;;;;;;;8.30;7.70;;;13.90;13.60;;;;;;5350277;26;20462;-77
2024/04/12 01:16:16;;;;;;;7.53;7.03;;;13.90;13.60;;;;;;5375228;26;20456;-78
2024/04/12 01:18:44;;;;;;;8.17;7.37;;;14.00;13.60;;;;;;5369222;26;20576;-78
2024/04/12 01:21:10;;;;;;;9.47;6.50;;;14.00;13.60;;;;;;5377844;26;20535;-77
2024/04/12 01:23:48;;;;;;;7.90;7.37;;;13.90;13.50;;;;;;5369682;26;20456;-78
2024/04/12 01:26:17;;;;;;;7.10;6.70;;;13.90;13.60;;;;;;5373890;26;20266;-77
2024/04/12 01:28:43;;;;;;;9.00;8.30;;;13.90;13.70;;;;;;5379732;26;20464;-77
2024/04/12 01:31:14;;;;;;;7.40;6.80;;;13.80;13.60;;;;;;5383027;26;20472;-77
2024/04/12 01:33:50;;;;;;;7.50;7.10;;;13.80;13.70;;;;;;5366797;26;20461;-78
2024/04/12 01:36:21;;;;;;;8.23;7.53;;;13.80;13.80;;;;;;5358666;26;20488;-76
2024/04/12 01:38:53;;;;;;;8.63;7.87;;;13.80;13.80;;;;;;5320370;26;20477;-77
2024/04/12 01:41:31;;;;;;;8.10;7.50;;;13.50;14.40;;;;;;5348178;26;20511;-77
2024/04/12 01:44:04;;;;;;;7.43;6.93;;;13.10;15.60;;;;;;5347863;26;20525;-77
2024/04/12 01:46:31;;;;;;;7.60;7.10;;;12.90;16.30;;;;;;5345229;26;20512;-77
2024/04/12 01:49:00;;;;;;;8.50;7.90;;;12.90;16.30;;;;;;5368456;26;21052;-77
2024/04/12 01:51:26;;;;;;;8.63;7.80;;;13.00;15.90;;;;;;5368198;26;20460;-77
2024/04/12 01:53:55;;;;;;;7.70;7.20;;;13.10;15.50;;;;;;5378797;26;20461;-78
2024/04/12 01:56:22;;;;;;;7.57;6.97;;;13.30;15.10;;;;;;5363058;26;20511;-77
2024/04/12 01:58:48;;;;;;;7.60;7.00;;;13.40;15.00;;;;;;5331578;26;20591;-80
2024/04/12 02:01:16;;;;;;;9.10;8.20;;;13.40;14.80;;;;;;5340490;26;20529;-77
2024/04/12 02:03:42;;;;;;;8.40;7.80;;;13.50;14.90;;;;;;5380780;26;20585;-79
2024/04/12 02:06:15;;;;;;;8.23;7.67;;;13.50;14.80;;;;;;5347850;26;20473;-77
2024/04/12 02:12:03;;;;;;;8.07;7.43;;;13.50;14.80;;;;;;5354198;26;20508;-77
2024/04/12 02:14:29;;;;;;;8.07;7.63;;;13.50;14.80;;;;;;5368703;26;20460;-76
2024/04/12 02:16:55;;;;;;;7.30;6.80;;;13.50;14.80;;;;;;5364589;26;20230;-79
2024/04/12 02:19:21;;;;;;;8.93;8.13;;;13.60;14.70;;;;;;5362135;26;20766;-77
2024/04/12 02:21:48;;;;;;;7.80;7.30;;;13.50;14.70;;;;;;5361145;26;20581;-78
2024/04/12 02:24:13;;;;;;;10.23;7.50;;;13.50;14.50;;;;;;5362985;26;20518;-78
2024/04/12 02:26:42;;;;;;;8.60;8.10;;;13.50;14.50;;;;;;5364499;26;20475;-78
2024/04/12 02:29:08;;;;;;;7.57;7.07;;;13.60;14.60;;;;;;5338882;26;20246;-78
2024/04/12 02:31:37;;;;;;;8.37;7.80;;;13.50;14.50;;;;;;5370479;26;20891;-77
2024/04/12 02:34:03;;;;;;;7.00;6.50;;;13.50;14.60;;;;;;5349308;26;21304;-78
2024/04/12 02:36:32;;;;;;;8.83;7.87;;;13.40;14.70;;;;;;5361550;26;20577;-78
2024/04/12 02:38:58;;;;;;;9.00;8.03;;;13.40;14.70;;;;;;5354908;26;20460;-77
2024/04/12 02:41:28;;;;;;;8.47;7.97;;;13.40;14.70;;;;;;5358157;26;20461;-77
2024/04/12 02:43:56;;;;;;;7.90;7.50;;;13.40;14.60;;;;;;5336099;26;20622;-77
2024/04/12 02:46:23;;;;;;;8.70;7.87;;;13.40;14.90;;;;;;5372667;26;20929;-77
2024/04/12 02:48:49;;;;;;;7.23;6.87;;;13.40;15.00;;;;;;5331593;26;20521;-77
2024/04/12 02:51:21;;;;;;;7.80;7.40;;;13.40;15.00;;;;;;5357042;26;21003;-76
2024/04/12 02:53:49;;;;;;;9.33;8.40;;;13.40;15.30;;;;;;5368494;26;20235;-77
2024/04/12 02:56:17;;;;;;;8.20;7.80;;;13.30;15.20;;;;;;5374276;26;20462;-77
2024/04/12 02:58:44;;;;;;;8.00;7.33;;;13.40;15.30;;;;;;5363263;26;20953;-78
2024/04/12 03:01:19;;;;;;;8.67;8.07;;;13.30;15.20;;;;;;5382873;26;20517;-77
2024/04/12 03:03:46;;;;;;;8.20;7.70;;;13.10;16.00;;;;;;5353266;26;20552;-78
2024/04/12 03:06:13;;;;;;;8.13;7.63;;;13.00;16.50;;;;;;5367588;26;20476;-77
2024/04/12 03:08:43;;;;;;;7.37;6.87;;;12.70;16.70;;;;;;5336551;26;20583;-77
2024/04/12 03:11:14;;;;;;;8.10;7.40;;;12.60;17.60;;;;;;5356822;26;20464;-78
2024/04/12 03:13:44;;;;;;;8.20;7.60;;;12.70;16.70;;;;;;5384226;26;20941;-78
2024/04/12 03:16:15;;;;;;;7.93;7.40;;;12.80;16.80;;;;;;5369470;26;20579;-78
2024/04/12 03:18:44;;;;;;;8.50;8.00;;;12.90;16.90;;;;;;5369187;26;20521;-77
2024/04/12 03:21:30;;;;;;;8.43;7.80;;;12.90;16.70;;;;;;5361578;26;20503;-78
2024/04/12 03:23:57;;;;;;;7.40;6.90;;;13.00;16.40;;;;;;5367540;26;20470;-77
2024/04/12 03:26:26;;;;;;;8.07;7.27;;;13.10;16.40;;;;;;5369757;26;20460;-78
2024/04/12 03:28:58;;;;;;;8.13;7.40;;;13.10;16.30;;;;;;5351141;26;20575;-78
2024/04/12 03:31:27;;;;;;;7.83;7.33;;;13.10;16.20;;;;;;5343186;26;20480;-77
2024/04/12 03:33:56;;;;;;;8.27;7.60;;;13.10;16.60;;;;;;5383130;26;20464;-78
2024/04/12 03:36:26;;;;;;;8.90;8.20;;;13.10;16.10;;;;;;5383849;26;20518;-78
2024/04/12 03:42:04;;;;;;;8.17;7.77;;;13.10;15.90;;;;;;5383490;26;20567;-77
2024/04/12 03:44:30;;;;;;;7.90;7.40;;;13.10;16.00;;;;;;5353336;26;20594;-77
2024/04/12 03:46:59;;;;;;;9.43;8.67;;;13.10;16.00;;;;;;5367812;26;20516;-77
2024/04/12 03:49:28;;;;;;;8.47;7.93;;;13.00;16.20;;;;;;5381182;26;20456;-77
2024/04/12 03:51:54;;;;;;;7.97;7.47;;;13.00;16.20;;;;;;5367010;26;20505;-78
2024/04/12 03:54:21;;;;;;;9.03;8.37;;;13.00;16.30;;;;;;5376730;26;20466;-78
2024/04/12 03:56:51;;;;;;;7.60;7.10;;;13.10;16.20;;;;;;5379290;26;20515;-77
2024/04/12 03:59:20;;;;;;;8.10;7.57;;;13.00;16.20;;;;;;5379932;26;20464;-77
2024/04/12 04:01:48;;;;;;;8.07;7.50;;;13.10;16.20;;;;;;5378682;26;20460;-78
2024/04/12 04:04:17;;;;;;;8.30;7.70;;;13.10;16.20;;;;;;5349329;26;20580;-77
2024/04/12 04:06:54;;;;;;;8.10;7.53;;;13.00;16.20;;;;;;5370586;26;20546;-77
2024/04/12 04:09:20;;;;;;;9.10;7.93;;;13.00;15.90;;;;;;5377360;26;20460;-77
2024/04/12 04:11:47;;;;;;;9.20;8.50;;;13.10;15.30;;;;;;5334157;26;20858;-77
2024/04/12 04:14:13;;;;;;;8.57;7.93;;;13.00;15.20;;;;;;5361935;26;20556;-77
2024/04/12 04:16:41;;;;;;;8.63;8.03;;;13.00;15.70;;;;;;5351549;26;21020;-78
2024/04/12 04:19:12;;;;;;;9.47;8.87;;;13.00;15.60;;;;;;5367740;26;20464;-79
2024/04/12 04:21:38;;;;;;;8.70;8.00;;;13.00;15.40;;;;;;5356383;26;20526;-77
2024/04/12 04:24:10;;;;;;;9.47;8.40;;;13.00;15.40;;;;;;5362088;26;20805;-78
2024/04/12 04:26:42;;;;;;;7.97;7.47;;;13.00;15.40;;;;;;5361095;26;20460;-78
2024/04/12 04:29:11;;;;;;;9.37;8.77;;;12.90;15.70;;;;;;5362974;26;20466;-78
2024/04/12 04:31:52;;;;;;;10.07;8.80;;;12.90;15.70;;;;;;5363757;26;20544;-78
2024/04/12 04:34:19;;;;;;;8.10;7.60;;;12.90;15.80;;;;;;5349652;26;21346;-78
2024/04/12 04:36:49;;;;;;;9.43;8.83;;;12.90;15.70;;;;;;5375728;26;20460;-79
2024/04/12 04:39:21;;;;;;;8.30;7.57;;;12.80;15.70;;;;;;5338975;26;20488;-78
2024/04/12 04:41:48;;;;;;;9.23;8.53;;;12.70;15.40;;;;;;5340852;26;20546;-78
2024/04/12 04:44:15;;;;;;;9.37;8.67;;;12.30;16.50;;;;;;5367575;26;20528;-78
2024/04/12 04:46:50;;;;;;;9.33;8.40;;;12.30;17.40;;;;;;5365187;26;20586;-78
2024/04/12 04:49:23;;;;;;;11.10;9.67;;;12.30;17.70;;;;;;5359306;26;20816;-77
2024/04/12 04:51:49;;;;;;;8.83;8.33;;;12.40;17.30;;;;;;5360737;26;20462;-77
2024/04/12 04:54:16;;;;;;;8.90;8.30;;;12.50;17.10;;;;;;5358973;26;20470;-78
2024/04/12 04:56:45;;;;;;;9.43;8.57;;;12.50;16.90;;;;;;5360094;26;20460;-77
2024/04/12 04:59:28;;;;;;;8.20;7.60;;;12.60;16.60;;;;;;5359999;26;20825;-78
2024/04/12 05:01:54;;;;;;;8.50;7.87;;;12.70;16.80;;;;;;5331919;26;20890;-78
2024/04/12 05:04:21;;;;;;;9.20;8.60;;;12.70;16.70;;;;;;5372306;26;20462;-78
2024/04/12 05:06:52;;;;;;;10.00;9.20;;;12.70;17.30;;;;;;5375177;26;20468;-78
2024/04/12 05:09:21;;;;;;;8.97;8.47;;;12.70;16.70;;;;;;5372892;26;20518;-78
2024/04/12 05:11:52;;;;;;;9.00;8.30;;;12.70;16.70;;;;;;5361134;26;20567;-78
2024/04/12 05:17:03;;;;;;;9.97;9.27;;;12.80;16.80;;;;;;5345748;26;20518;-78
2024/04/12 05:19:31;;;;;;;9.70;9.00;;;12.70;16.70;;;;;;5340258;26;20473;-78
2024/04/12 05:21:59;;;;;;;9.53;8.60;;;12.70;16.70;;;;;;5366108;26;20446;-78
2024/04/12 05:24:25;;;;;;;9.77;8.97;;;12.70;16.70;;;;;;5356798;26;20585;-77
2024/04/12 05:27:01;;;;;;;14.87;9.60;;;12.70;16.90;;;;;;5374278;26;20480;-78
2024/04/12 05:29:28;;;;;;;10.53;9.47;;;12.70;16.80;;;;;;5358820;26;20517;-78
2024/04/12 05:31:56;;;;;;;9.53;9.03;;;12.70;16.70;;;;;;5360265;26;20587;-76
2024/04/12 05:34:22;;;;;;;9.20;8.40;;;12.70;16.80;;;;;;5370728;26;20516;-77
2024/04/12 05:36:48;;;;;;;10.37;9.70;;;12.70;16.70;;;;;;5365014;26;20532;-77
2024/04/12 05:39:19;;;;;;;9.10;8.40;;;12.70;16.70;;;;;;5375398;26;20575;-77
2024/04/12 05:41:45;;;;;;;9.47;8.77;;;12.70;16.70;;;;;;5382475;21;21228;-81
2024/04/12 05:44:11;;;;;;;9.17;8.30;;;12.70;16.70;;;;;;5397409;26;20475;-81
2024/04/12 05:46:39;;;;;;;9.07;8.43;;;12.70;16.00;;;;;;5418117;26;20267;-83
2024/04/12 05:49:09;;;;;;;9.73;9.03;;;12.60;16.60;;;;;;5421359;26;20536;-82
2024/04/12 05:51:39;;;;;;;8.60;8.00;;;12.50;16.60;;;;;;5409230;26;20512;-82
2024/04/12 05:54:10;;;;;;;10.67;9.37;;;12.40;16.90;;;;;;5371017;26;20596;-82
2024/04/12 05:56:39;;;;;;;10.33;9.43;;;12.20;17.00;;;;;;5341670;26;20488;-82
2024/04/12 05:59:14;;;;;;;9.60;8.80;;;12.10;17.20;;;;;;5325135;26;20488;-82
2024/04/12 06:01:47;;;;;;;10.70;9.30;;;12.10;17.20;;;;;;5377385;26;20604;-83
2024/04/12 06:04:19;;;;;;;9.10;8.60;;;12.00;17.10;;;;;;5359865;26;20565;-81
2024/04/12 06:06:47;;;;;;;9.23;8.63;;;11.90;17.50;;;;;;5324712;26;20479;-80
2024/04/12 06:09:22;;;;;;;10.33;9.00;;;11.90;17.60;;;;;;5333423;26;20968;-81
2024/04/12 06:12:01;;;;;;;11.03;9.20;;;11.90;17.50;;;;;;5339134;26;20481;-82
2024/04/12 06:14:27;;;;;;;9.10;8.53;;;11.90;17.40;;;;;;5370559;26;20472;-82
2024/04/12 06:16:56;;;;;;;11.53;9.10;;;11.90;17.60;;;;;;5358837;26;20534;-84
2024/04/12 06:19:26;;;;;;;9.17;8.30;;;12.00;18.30;;;;;;5341038;26;20324;-83
2024/04/12 06:21:57;;;;;;;10.37;9.47;;;12.10;18.30;;;;;;5359476;26;20590;-84
2024/04/12 06:24:29;;;;;;;10.63;9.83;;;12.30;17.70;;;;;;5331619;26;20480;-83
2024/04/12 06:26:55;;;;;;;9.70;9.00;;;12.50;16.70;;;;;;5341760;26;20474;-83
2024/04/12 06:29:22;;;;;;;10.53;9.57;;;12.60;16.60;;;;;;5321634;26;20533;-83
2024/04/12 06:31:50;;;;;;;9.77;8.93;;;12.70;16.70;;;;;;5349855;26;20488;-81
2024/04/12 06:34:19;;;;;;;10.07;9.07;;;12.80;16.40;;;;;;5357461;26;20588;-83
2024/04/12 06:36:55;;;;;;;9.90;9.17;;;12.80;16.80;;;;;;5357770;26;20585;-80
2024/04/12 06:39:28;;;;;;;10.50;9.60;;;12.90;16.40;;;;;;5352234;26;20470;-83
2024/04/12 06:41:54;;;;;;;10.33;9.63;;;13.00;16.30;;;;;;5372989;26;20465;-83
2024/04/12 06:44:20;;;;;;;12.60;9.13;;;13.10;15.70;;;;;;5378197;26;20514;-82
2024/04/12 06:46:52;;;;;;;10.73;10.00;;;13.20;15.50;;;;;;5347125;26;20474;-83
2024/04/12 06:49:32;;;;;;;10.60;9.60;;;13.20;15.40;;;;;;5361454;26;20226;-82
2024/04/12 06:52:10;;;;;;;9.87;8.97;;;13.30;15.30;;;;;;5333843;26;20569;-82
2024/04/12 06:54:42;;;;;;;11.43;10.30;;;13.40;15.30;;;;;;5382091;26;20508;-81
2024/04/12 06:57:09;;;;;;;12.00;11.20;;;13.40;16.20;;;;;;5355433;26;20472;-81
2024/04/12 06:59:35;;;;;;;10.53;9.87;;;13.50;15.30;;;;;;5360537;26;20484;-81
2024/04/12 07:02:03;;;;;;;11.73;9.37;;;13.50;15.20;;;;;;5350071;26;20476;-80
2024/04/12 07:04:29;;;;;;;9.90;9.30;;;13.60;15.20;;;;;;5380734;26;20460;-82
2024/04/12 07:06:56;;;;;;;10.83;9.93;;;13.70;15.20;;;;;;5345400;26;20519;-82
2024/04/12 07:09:22;;;;;;;10.67;9.97;;;13.70;15.10;;;;;;5342300;26;20243;-82
2024/04/12 07:11:51;;;;;;;10.67;9.70;;;13.80;15.30;;;;;;5388650;26;20882;-82
2024/04/12 07:14:23;;;;;;;11.03;10.23;;;13.90;14.80;;;;;;5353813;26;20506;-81
2024/04/12 07:16:53;;;;;;;11.20;10.40;;;13.80;14.50;;;;;;5350447;26;20476;-85
2024/04/12 07:19:23;;;;;;;12.13;11.10;;;13.70;14.70;;;;;;5387600;26;20460;-82
2024/04/12 07:21:54;;;;;;;11.53;10.40;;;13.70;15.10;;;;;;5388527;26;20465;-82
2024/04/12 07:24:23;;;;;;;13.03;12.13;;;13.80;15.50;;;;;;5359367;26;21055;-81
2024/04/12 07:26:49;;;;;;;15.30;13.80;;;13.90;15.10;;;;;;5393806;26;20523;-81
2024/04/12 07:29:15;;;;;;;11.30;10.50;;;13.90;14.90;;;;;;5364009;26;20532;-82
2024/04/12 07:31:42;;;;;;;12.30;11.50;;;13.90;14.70;;;;;;5359598;26;20476;-81
2024/04/12 07:34:08;;;;;;;11.77;10.97;;;13.90;14.80;;;;;;5390518;26;20230;-81
2024/04/12 07:36:34;;;;;;;11.83;10.97;;;14.00;14.80;;;;;;5379726;26;20552;-82
2024/04/12 07:39:01;;;;;;;13.80;12.33;;;14.00;15.50;;;;;;5341444;26;20247;-80
2024/04/12 07:41:48;;;;;;;11.47;10.70;;;14.20;14.70;;;;;;5342114;26;20587;-82
2024/04/12 07:44:15;;;;;;;12.67;11.40;;;14.20;14.10;;;;;;5350244;26;20468;-83
2024/04/12 07:46:51;;;;;;;13.27;12.00;;;14.40;14.30;;;;;;5357617;26;20533;-80
2024/04/12 07:49:18;;;;;;;11.50;10.73;;;14.40;13.90;;;;;;5388027;26;20481;-82
2024/04/12 07:51:47;;;;;;;13.23;12.43;;;14.50;14.00;;;;;;5324613;26;20489;-83
2024/04/12 07:54:13;;;;;;;12.27;11.37;;;14.50;13.90;;;;;;5325921;26;20564;-82
2024/04/12 07:56:44;;;;;;;13.53;10.87;;;14.50;14.10;;;;;;5361483;26;20466;-82
2024/04/12 07:59:15;;;;;;;12.57;10.63;;;14.60;13.90;;;;;;5356750;26;20470;-79
2024/04/12 08:01:45;;;;;;;11.37;10.53;;;14.60;14.60;;;;;;5372712;26;20529;-82
2024/04/12 08:04:22;;;;;;;11.83;10.90;;;14.60;13.70;;;;;;5345086;26;20464;-81
2024/04/12 08:11:59;;;;;;;12.13;11.23;;;14.80;13.90;;;;;;5385903;26;20517;-82
2024/04/12 08:14:26;;;;;;;12.97;11.87;;;14.80;13.90;;;;;;5355238;26;20861;-81
2024/04/12 08:16:53;;;;;;;12.73;11.73;;;14.80;13.60;;;;;;5372677;26;20270;-82
2024/04/12 08:19:22;;;;;;;11.80;10.87;;;14.80;13.70;;;;;;5347458;26;20596;-81
2024/04/12 08:21:54;;;;;;;12.47;11.37;;;14.80;13.90;;;;;;5351304;26;20588;-82
2024/04/12 08:24:24;;;;;;;12.17;11.17;;;14.90;14.30;;;;;;5339888;26;20918;-81
2024/04/12 08:26:53;;;;;;;12.30;11.40;;;15.00;14.00;;;;;;5385509;26;20460;-82
2024/04/12 08:29:23;;;;;;;12.03;11.27;;;15.10;14.40;;;;;;5353879;26;20468;-82
2024/04/12 08:34:45;;;;;;;12.60;11.60;;;15.20;14.20;;;;;;5385169;26;20472;-82
2024/04/12 08:37:16;;;;;;;12.30;11.40;;;15.30;14.20;;;;;;5385365;26;20464;-82
2024/04/12 08:39:44;;;;;;;13.10;11.90;;;15.40;14.30;;;;;;5354836;26;20527;-82
2024/04/12 08:42:11;;;;;;;13.47;12.17;;;15.50;14.10;;;;;;5385533;26;20557;-81
2024/04/12 08:44:37;;;;;;;13.03;12.00;;;15.50;13.90;;;;;;5361720;26;20531;-82
2024/04/12 08:49:51;;;;;;;12.27;11.23;;;15.70;13.90;;;;;;5376857;26;20559;-81
2024/04/12 08:52:25;;;;;;;12.37;11.27;;;15.80;13.90;;;;;;5353653;26;20496;-81
2024/04/12 08:54:55;;;;;;;13.60;12.57;;;15.90;13.80;;;;;;5353934;26;20488;-82
2024/04/12 08:57:23;;;;;;;13.40;12.23;;;16.00;13.80;;;;;;5385048;26;20878;-82
2024/04/12 08:59:48;;;;;;;13.43;12.53;;;16.10;13.50;;;;;;5354034;26;20539;-82
2024/04/12 09:02:20;;;;;;;14.27;13.17;;;16.10;13.50;;;;;;5384770;26;20472;-82
2024/04/12 09:04:45;;;;;;;14.07;12.60;;;16.20;13.80;;;;;;5353555;26;20322;-80
2024/04/12 09:07:14;;;;;;;12.30;11.20;;;16.30;13.60;;;;;;5385095;26;20468;-81
2024/04/12 09:09:40;;;;;;;12.77;11.80;;;16.40;13.50;;;;;;5353131;26;20235;-81
2024/04/12 09:12:12;;;;;;;11.60;10.70;;;16.50;13.30;;;;;;5384078;26;20479;-81
2024/04/12 09:14:40;;;;;;;14.83;11.90;;;16.60;14.20;;;;;;5383927;26;20595;-81
2024/04/12 09:17:14;;;;;;;12.77;11.57;;;16.80;12.40;;;;;;5353371;26;20540;-81
2024/04/12 09:19:40;;;;;;;14.47;13.27;;;17.00;12.40;;;;;;5354066;26;20476;-81
2024/04/12 09:22:09;;;;;;;13.40;12.30;;;17.30;12.30;;;;;;5354012;26;20484;-82
2024/04/12 09:24:39;;;;;;;13.13;12.00;;;17.50;11.40;;;;;;5385560;26;20472;-82
2024/04/12 09:27:09;;;;;;;13.40;12.00;;;17.70;12.00;;;;;;5354536;26;20526;-82
2024/04/12 09:29:43;;;;;;;11.70;10.90;;;17.90;11.10;;;;;;5385972;26;20558;-82
2024/04/12 09:34:55;;;;;;;13.83;12.67;;;18.40;10.40;;;;;;5390095;26;20612;-80
2024/04/12 09:37:29;;;;;;;12.87;11.67;;;18.50;9.50;;;;;;5358148;26;20563;-82
2024/04/12 09:42:44;;;;;;;10.90;10.30;;;18.80;8.90;;;;;;5390349;26;20230;-82
2024/04/12 09:45:16;;;;;;;11.70;10.80;;;18.90;9.10;;;;;;5328764;26;20489;-80
2024/04/12 10:37:47;;;;;;;12.57;11.73;;;20.10;6.20;;;;;;5354321;26;20521;-81
2024/04/12 10:40:13;;;;;;;11.87;10.80;;;20.20;6.50;;;;;;5352421;26;20480;-80
2024/04/12 10:42:38;;;;;;;11.77;10.87;;;20.20;6.40;;;;;;5347258;26;20533;-80
2024/04/12 10:45:08;;;;;;;14.20;11.53;;;20.30;6.50;;;;;;5350766;26;20265;-82
2024/04/12 10:47:37;;;;;;;13.27;12.27;;;20.30;6.30;;;;;;5325583;26;20282;-81
2024/04/12 10:50:04;;;;;;;13.60;12.80;;;20.30;6.20;;;;;;5374326;26;20473;-81
2024/04/12 10:52:31;;;;;;;13.70;12.60;;;20.40;5.60;;;;;;5378078;26;20470;-81
2024/04/12 10:54:57;;;;;;;13.47;12.17;;;20.30;5.90;;;;;;5360090;26;20522;-80
2024/04/12 10:57:23;;;;;;;12.07;11.17;;;20.30;6.00;;;;;;5357453;26;20476;-81
2024/04/12 10:59:51;;;;;;;12.17;10.87;;;20.30;6.40;;;;;;5356595;26;20522;-81
2024/04/12 11:02:18;;;;;;;12.60;11.60;;;20.40;6.90;;;;;;5383534;26;20242;-81
2024/04/12 11:07:28;;;;;;;14.67;13.70;;;20.30;6.10;;;;;;5372729;26;20584;-81
2024/04/12 11:10:03;;;;;;;14.07;12.97;;;20.30;6.00;;;;;;5330105;26;20490;-82
2024/04/12 11:12:30;;;;;;;12.63;11.70;;;20.10;6.00;;;;;;5321996;26;20608;-81
2024/04/12 11:31:29;;;;;;;12.20;11.40;;;19.80;6.70;;;;;;5382403;26;20530;-81
2024/04/12 11:33:57;;;;;;;13.03;12.17;;;19.80;6.70;;;;;;5383935;26;20476;-81
2024/04/12 11:36:23;;;;;;;13.70;12.70;;;19.80;6.40;;;;;;5352655;26;20267;-81
2024/04/12 11:38:53;;;;;;;12.70;11.90;;;19.90;6.80;;;;;;5346052;26;20486;-81
2024/04/12 11:41:23;;;;;;;13.00;11.80;;;19.90;6.60;;;;;;5339703;26;20514;-81
2024/04/12 11:43:51;;;;;;;12.33;11.53;;;19.90;6.80;;;;;;5405766;21;20495;-76
2024/04/12 11:46:19;;;;;;;12.30;11.40;;;19.90;6.20;;;;;;5403082;26;21036;-76
2024/04/12 11:48:45;;;;;;;12.40;11.20;;;19.80;6.60;;;;;;5449829;26;20465;-76
2024/04/12 11:51:15;;;;;;;12.70;11.47;;;19.90;6.50;;;;;;5435112;26;20910;-75
2024/04/12 11:53:43;;;;;;;11.53;10.53;;;20.00;6.20;;;;;;5382034;26;20238;-76
2024/04/12 11:56:12;;;;;;;13.63;12.57;;;20.20;6.00;;;;;;5407534;26;20475;-77
2024/04/12 11:58:37;;;;;;;13.57;12.37;;;20.30;5.80;;;;;;5396731;26;20526;-76
2024/04/12 12:01:04;;;;;;;13.07;11.77;;;20.30;5.90;;;;;;5402904;26;20507;-77
2024/04/12 12:03:30;;;;;;;13.83;12.83;;;20.20;5.80;;;;;;5409900;26;20253;-77
2024/04/12 12:06:06;;;;;;;14.13;12.67;;;20.20;6.00;;;;;;5421183;26;20467;-77
2024/04/12 12:08:41;;;;;;;13.40;12.40;;;20.20;6.30;;;;;;5401659;26;20536;-76
2024/04/12 12:11:08;;;;;;;13.70;12.63;;;20.20;6.30;;;;;;5400929;26;20458;-76
2024/04/12 12:13:34;;;;;;;14.23;13.00;;;20.10;6.30;;;;;;5396303;26;20516;-77
2024/04/12 12:15:59;;;;;;;13.73;12.63;;;20.10;6.70;;;;;;5395883;26;20826;-77
2024/04/12 12:18:27;;;;;;;14.27;13.17;;;20.10;6.60;;;;;;5383017;26;20597;-76
2024/04/12 12:20:53;;;;;;;14.40;13.40;;;20.10;6.10;;;;;;5400299;26;20704;-78
2024/04/12 12:23:19;;;;;;;14.90;13.80;;;20.10;6.40;;;;;;5399652;26;20858;-76
2024/04/12 12:25:47;;;;;;;15.07;13.90;;;20.10;6.70;;;;;;5402665;26;20464;-78
2024/04/12 12:28:13;;;;;;;14.20;13.00;;;20.00;6.40;;;;;;5407518;26;20241;-76
2024/04/12 12:30:39;;;;;;;15.60;14.30;;;20.00;6.90;;;;;;5407363;26;20464;-77
2024/04/12 12:33:07;;;;;;;14.57;13.27;;;20.00;6.80;;;;;;5400040;26;20459;-77
2024/04/12 12:35:33;;;;;;;13.67;12.63;;;20.00;6.60;;;;;;5415640;26;20342;-77
2024/04/12 12:38:01;;;;;;;13.77;12.37;;;19.90;6.70;;;;;;5417470;26;20895;-76
2024/04/12 12:40:29;;;;;;;13.57;12.57;;;19.90;6.70;;;;;;5402300;26;20779;-77
2024/04/12 12:42:55;;;;;;;15.80;14.27;;;19.90;6.50;;;;;;5386282;26;20468;-77
2024/04/12 12:45:21;;;;;;;13.77;12.60;;;20.00;6.50;;;;;;5370873;26;20519;-77
2024/04/12 12:47:47;;;;;;;12.97;11.97;;;20.10;6.40;;;;;;5365720;26;20238;-78
2024/04/12 12:50:19;;;;;;;12.97;12.07;;;20.10;6.00;;;;;;5412328;26;20870;-77
2024/04/12 12:52:51;;;;;;;13.30;12.10;;;20.20;5.90;;;;;;5385660;26;20482;-78
2024/04/12 12:55:22;;;;;;;14.93;13.47;;;20.30;6.10;;;;;;5416794;26;20455;-76
2024/04/12 12:57:49;;;;;;;15.73;14.23;;;20.30;5.60;;;;;;5384135;26;21054;-76
2024/04/12 13:00:19;;;;;;;15.63;14.37;;;20.30;5.60;;;;;;5415440;26;20459;-75
2024/04/12 13:02:50;;;;;;;13.37;12.27;;;20.30;5.80;;;;;;5415462;26;21064;-77
2024/04/12 13:05:16;;;;;;;14.30;12.90;;;20.30;5.90;;;;;;5417969;26;20522;-78
2024/04/12 13:07:42;;;;;;;14.33;13.13;;;20.40;5.80;;;;;;5374637;26;20467;-77
2024/04/12 13:10:12;;;;;;;14.27;12.93;;;20.40;5.60;;;;;;5419180;26;20534;-76
2024/04/12 13:12:40;;;;;;;14.70;13.40;;;20.40;5.20;;;;;;5419413;26;20474;-78
2024/04/12 13:15:12;;;;;;;13.53;12.43;;;20.40;5.50;;;;;;5418506;26;20522;-76
2024/04/12 13:17:38;;;;;;;12.80;11.90;;;20.40;5.50;;;;;;5419995;26;20510;-76
2024/04/12 13:20:06;;;;;;;13.67;12.47;;;20.50;5.20;;;;;;5418270;26;20470;-77
2024/04/12 13:22:32;;;;;;;13.83;12.60;;;20.60;5.50;;;;;;5388824;26;20232;-77
2024/04/12 13:25:01;;;;;;;16.13;11.47;;;20.60;5.20;;;;;;5409611;26;20529;-78
2024/04/12 13:27:29;;;;;;;12.13;11.17;;;20.60;5.30;;;;;;5384627;26;20744;-76
2024/04/12 13:29:55;;;;;;;12.97;11.87;;;20.60;5.20;;;;;;5382844;26;20923;-77
2024/04/12 13:32:20;;;;;;;12.07;10.87;;;20.60;5.20;;;;;;5399425;26;20470;-77
2024/04/12 13:34:46;;;;;;;12.40;11.30;;;20.60;5.30;;;;;;5418807;26;20526;-76
2024/04/12 13:37:14;;;;;;;11.67;10.47;;;20.60;4.90;;;;;;5418921;26;20311;-77
2024/04/12 13:39:39;;;;;;;10.63;9.53;;;20.60;4.80;;;;;;5417877;26;20334;-75
2024/04/12 13:42:10;;;;;;;10.27;9.37;;;20.70;4.60;;;;;;5418640;26;20466;-77
2024/04/12 13:52:49;;;;;;;10.70;9.37;;;20.60;4.60;;;;;;5420259;26;20542;-77
2024/04/12 13:55:15;;;;;;;10.13;9.13;;;20.60;4.60;;;;;;5374099;26;20472;-77
2024/04/12 13:57:43;;;;;;;10.43;9.47;;;20.50;4.50;;;;;;5404131;26;20245;-77
2024/04/12 14:00:10;;;;;;;9.20;8.53;;;20.50;4.50;;;;;;5391714;26;20230;-76
2024/04/12 14:02:36;;;;;;;9.33;8.50;;;20.50;4.50;;;;;;5413468;26;20568;-76
2024/04/12 14:05:02;;;;;;;9.37;8.67;;;20.60;4.60;;;;;;5365859;26;20532;-77
2024/04/12 14:07:33;;;;;;;9.33;8.43;;;20.70;4.70;;;;;;5400149;26;20464;-77
2024/04/12 14:10:03;;;;;;;8.13;7.50;;;20.70;4.60;;;;;;5403297;26;20470;-77
2024/04/12 14:12:29;;;;;;;7.50;7.10;;;20.60;4.30;;;;;;5414102;26;20483;-77
2024/04/12 14:14:55;;;;;;;8.30;7.60;;;20.50;4.50;;;;;;5387565;26;20544;-78
2024/04/12 14:17:22;;;;;;;8.63;8.03;;;20.50;4.50;;;;;;5380998;26;20518;-77
2024/04/12 14:19:48;;;;;;;8.13;7.43;;;20.50;4.20;;;;;;5406956;26;20233;-78
2024/04/12 14:22:14;;;;;;;8.43;7.87;;;20.50;4.30;;;;;;5408550;26;20594;-78
2024/04/12 14:25:02;;;;;;;8.80;7.90;;;20.50;4.20;;;;;;5400608;26;20231;-80
2024/04/12 14:27:28;;;;;;;7.33;6.47;;;20.50;4.20;;;;;;5372989;26;20241;-77
2024/04/12 14:29:54;;;;;;;8.10;7.40;;;20.50;4.40;;;;;;5385254;26;20476;-78
2024/04/12 14:32:22;;;;;;;7.47;6.97;;;20.50;4.10;;;;;;5370597;26;20475;-77